sensor_id;sensor_type;location;lat;lon;timestamp;pressure;altitude;pressure_sealevel;temperature;humidity
11621;BME280;5866;49.094;11.900;2023-06-22T00:00:11;96448.53;;;19.54;100.00
11621;BME280;5866;49.094;11.900;2023-06-22T00:02:39;96450.66;;;19.46;100.00
11621;BME280;5866;49.094;11.900;2023-06-22T00:05:07;96436.50;;;19.63;100.00
11621;BME280;5866;49.094;11.900;2023-06-22T00:07:34;96427.69;;;19.30;100.00
11621;BME280;5866;49.094;11.900;2023-06-22T00:10:04;96419.97;;;19.60;100.00
11621;BME280;5866;49.094;11.900;2023-06-22T00:12:32;96417.91;;;19.55;100.00
11621;BME280;5866;49.094;11.900;2023-06-22T00:15:00;96410.81;;;19.67;100.00
11621;BME280;5866;49.094;11.900;2023-06-22T00:17:27;96409.09;;;19.79;100.00
11621;BME280;5866;49.094;11.900;2023-06-22T00:19:55;96413.00;;;19.83;100.00
11621;BME280;5866;49.094;11.900;2023-06-22T00:22:25;96408.44;;;19.84;100.00
11621;BME280;5866;49.094;11.900;2023-06-22T00:24:55;96407.63;;;19.83;100.00
11621;BME280;5866;49.094;11.900;2023-06-22T00:27:25;96400.50;;;19.64;100.00
11621;BME280;5866;49.094;11.900;2023-06-22T00:29:52;96397.41;;;19.54;100.00
11621;BME280;5866;49.094;11.900;2023-06-22T00:32:20;96399.31;;;19.47;100.00
11621;BME280;5866;49.094;11.900;2023-06-22T00:34:47;96396.53;;;18.83;100.00
11621;BME280;5866;49.094;11.900;2023-06-22T00:37:17;96403.19;;;18.48;100.00
11621;BME280;5866;49.094;11.900;2023-06-22T00:39:45;96400.28;;;18.76;100.00
11621;BME280;5866;49.094;11.900;2023-06-22T00:42:12;96389.31;;;18.38;100.00
11621;BME280;5866;49.094;11.900;2023-06-22T00:44:41;96396.16;;;18.67;100.00
11621;BME280;5866;49.094;11.900;2023-06-22T00:47:10;96399.00;;;18.98;100.00
11621;BME280;5866;49.094;11.900;2023-06-22T00:49:39;96403.81;;;18.63;100.00
11621;BME280;5866;49.094;11.900;2023-06-22T00:52:07;96402.16;;;18.56;100.00
11621;BME280;5866;49.094;11.900;2023-06-22T00:54:35;96389.75;;;18.81;100.00
11621;BME280;5866;49.094;11.900;2023-06-22T00:57:03;96387.84;;;18.94;100.00
11621;BME280;5866;49.094;11.900;2023-06-22T00:59:31;96401.91;;;18.38;100.00
11621;BME280;5866;49.094;11.900;2023-06-22T01:02:00;96392.44;;;18.68;100.00
11621;BME280;5866;49.094;11.900;2023-06-22T01:04:34;96391.59;;;18.87;100.00
11621;BME280;5866;49.094;11.900;2023-06-22T01:07:09;96387.47;;;18.39;100.00
11621;BME280;5866;49.094;11.900;2023-06-22T01:10:00;96383.72;;;18.13;100.00
11621;BME280;5866;49.094;11.900;2023-06-22T01:12:32;96388.28;;;18.33;100.00
11621;BME280;5866;49.094;11.900;2023-06-22T01:15:05;96391.53;;;17.82;100.00
11621;BME280;5866;49.094;11.900;2023-06-22T01:17:40;96411.19;;;17.48;100.00
11621;BME280;5866;49.094;11.900;2023-06-22T01:20:09;96416.25;;;17.71;100.00
11621;BME280;5866;49.094;11.900;2023-06-22T01:22:48;96414.69;;;18.16;100.00
11621;BME280;5866;49.094;11.900;2023-06-22T01:25:20;96401.53;;;18.73;100.00
11621;BME280;5866;49.094;11.900;2023-06-22T01:27:55;96394.59;;;19.36;100.00
11621;BME280;5866;49.094;11.900;2023-06-22T01:30:29;96398.97;;;19.18;100.00
11621;BME280;5866;49.094;11.900;2023-06-22T01:33:03;96391.47;;;19.33;100.00
11621;BME280;5866;49.094;11.900;2023-06-22T01:35:32;96401.81;;;19.42;100.00
11621;BME280;5866;49.094;11.900;2023-06-22T01:38:01;96403.34;;;18.99;100.00
11621;BME280;5866;49.094;11.900;2023-06-22T01:40:29;96411.78;;;19.16;100.00
11621;BME280;5866;49.094;11.900;2023-06-22T01:42:59;96410.84;;;19.54;100.00
11621;BME280;5866;49.094;11.900;2023-06-22T01:45:29;96411.22;;;19.71;100.00
11621;BME280;5866;49.094;11.900;2023-06-22T01:47:57;96408.47;;;19.77;100.00
11621;BME280;5866;49.094;11.900;2023-06-22T01:50:25;96394.06;;;20.03;100.00
11621;BME280;5866;49.094;11.900;2023-06-22T01:52:53;96394.63;;;20.12;100.00
11621;BME280;5866;49.094;11.900;2023-06-22T01:55:21;96392.63;;;20.32;100.00
11621;BME280;5866;49.094;11.900;2023-06-22T01:57:49;96389.09;;;20.38;100.00
11621;BME280;5866;49.094;11.900;2023-06-22T02:00:20;96391.94;;;20.43;100.00
11621;BME280;5866;49.094;11.900;2023-06-22T02:02:53;96388.09;;;20.57;100.00
11621;BME280;5866;49.094;11.900;2023-06-22T02:05:26;96391.00;;;20.31;100.00
11621;BME280;5866;49.094;11.900;2023-06-22T02:08:00;96399.13;;;20.24;100.00
11621;BME280;5866;49.094;11.900;2023-06-22T02:10:30;96402.00;;;20.29;100.00
11621;BME280;5866;49.094;11.900;2023-06-22T02:12:59;96401.69;;;20.44;100.00
11621;BME280;5866;49.094;11.900;2023-06-22T02:15:28;96408.00;;;20.56;100.00
11621;BME280;5866;49.094;11.900;2023-06-22T02:17:57;96408.72;;;20.45;100.00
11621;BME280;5866;49.094;11.900;2023-06-22T02:20:25;96403.31;;;20.45;100.00
11621;BME280;5866;49.094;11.900;2023-06-22T02:22:53;96406.72;;;20.34;100.00
11621;BME280;5866;49.094;11.900;2023-06-22T02:25:20;96399.41;;;20.10;100.00
11621;BME280;5866;49.094;11.900;2023-06-22T02:27:48;96397.84;;;19.96;100.00
11621;BME280;5866;49.094;11.900;2023-06-22T02:30:16;96402.47;;;19.82;100.00
11621;BME280;5866;49.094;11.900;2023-06-22T02:32:43;96391.22;;;19.92;100.00
11621;BME280;5866;49.094;11.900;2023-06-22T02:35:12;96386.03;;;19.52;100.00
11621;BME280;5866;49.094;11.900;2023-06-22T02:37:40;96389.81;;;19.25;100.00
11621;BME280;5866;49.094;11.900;2023-06-22T02:40:09;96389.44;;;19.15;100.00
11621;BME280;5866;49.094;11.900;2023-06-22T02:42:37;96383.34;;;19.52;100.00
11621;BME280;5866;49.094;11.900;2023-06-22T02:45:05;96385.19;;;19.58;100.00
11621;BME280;5866;49.094;11.900;2023-06-22T02:47:33;96381.19;;;19.67;100.00
11621;BME280;5866;49.094;11.900;2023-06-22T02:50:01;96391.63;;;19.51;100.00
11621;BME280;5866;49.094;11.900;2023-06-22T02:52:30;96394.06;;;19.59;100.00
11621;BME280;5866;49.094;11.900;2023-06-22T02:54:57;96392.44;;;19.58;100.00
11621;BME280;5866;49.094;11.900;2023-06-22T02:57:25;96382.53;;;19.52;100.00
11621;BME280;5866;49.094;11.900;2023-06-22T02:59:52;96385.41;;;19.50;100.00
11621;BME280;5866;49.094;11.900;2023-06-22T03:02:21;96379.38;;;19.61;100.00
11621;BME280;5866;49.094;11.900;2023-06-22T03:04:49;96392.72;;;19.37;100.00
11621;BME280;5866;49.094;11.900;2023-06-22T03:07:16;96389.22;;;19.36;100.00
11621;BME280;5866;49.094;11.900;2023-06-22T03:09:46;96380.72;;;19.39;100.00
11621;BME280;5866;49.094;11.900;2023-06-22T03:12:13;96374.91;;;19.42;100.00
11621;BME280;5866;49.094;11.900;2023-06-22T03:14:41;96374.03;;;19.48;100.00
11621;BME280;5866;49.094;11.900;2023-06-22T03:17:09;96374.03;;;19.48;100.00
11621;BME280;5866;49.094;11.900;2023-06-22T03:19:37;96364.78;;;19.38;100.00
11621;BME280;5866;49.094;11.900;2023-06-22T03:22:04;96371.59;;;19.40;100.00
11621;BME280;5866;49.094;11.900;2023-06-22T03:24:33;96369.13;;;19.32;100.00
11621;BME280;5866;49.094;11.900;2023-06-22T03:27:02;96377.84;;;19.21;100.00
11621;BME280;5866;49.094;11.900;2023-06-22T03:29:31;96379.38;;;19.61;100.00
11621;BME280;5866;49.094;11.900;2023-06-22T03:31:58;96385.56;;;19.68;100.00
11621;BME280;5866;49.094;11.900;2023-06-22T03:34:27;96387.69;;;19.53;100.00
11621;BME280;5866;49.094;11.900;2023-06-22T03:36:54;96395.63;;;19.22;100.00
11621;BME280;5866;49.094;11.900;2023-06-22T03:39:22;96400.34;;;19.46;100.00
11621;BME280;5866;49.094;11.900;2023-06-22T03:41:49;96389.41;;;19.86;100.00
11621;BME280;5866;49.094;11.900;2023-06-22T03:44:18;96401.13;;;19.98;100.00
11621;BME280;5866;49.094;11.900;2023-06-22T03:46:46;96404.34;;;19.11;100.00
11621;BME280;5866;49.094;11.900;2023-06-22T03:49:13;96403.47;;;19.43;100.00
11621;BME280;5866;49.094;11.900;2023-06-22T03:51:41;96396.97;;;20.02;100.00
11621;BME280;5866;49.094;11.900;2023-06-22T03:54:09;96408.81;;;20.32;100.00
11621;BME280;5866;49.094;11.900;2023-06-22T03:56:37;96429.06;;;19.52;100.00
11621;BME280;5866;49.094;11.900;2023-06-22T03:59:04;96436.16;;;19.40;100.00
11621;BME280;5866;49.094;11.900;2023-06-22T04:01:33;96440.31;;;19.23;100.00
11621;BME280;5866;49.094;11.900;2023-06-22T04:04:01;96445.69;;;19.17;100.00
11621;BME280;5866;49.094;11.900;2023-06-22T04:06:29;96451.47;;;19.46;100.00
11621;BME280;5866;49.094;11.900;2023-06-22T04:08:57;96435.03;;;20.12;100.00
11621;BME280;5866;49.094;11.900;2023-06-22T04:11:24;96424.59;;;20.53;100.00
11621;BME280;5866;49.094;11.900;2023-06-22T04:13:52;96426.38;;;20.41;100.00
11621;BME280;5866;49.094;11.900;2023-06-22T04:16:20;96432.28;;;19.80;100.00
11621;BME280;5866;49.094;11.900;2023-06-22T04:18:49;96443.94;;;19.68;100.00
11621;BME280;5866;49.094;11.900;2023-06-22T04:21:16;96434.81;;;19.69;100.00
11621;BME280;5866;49.094;11.900;2023-06-22T04:23:46;96437.38;;;20.02;100.00
11621;BME280;5866;49.094;11.900;2023-06-22T04:26:13;96434.09;;;20.31;100.00
11621;BME280;5866;49.094;11.900;2023-06-22T04:28:41;96432.63;;;21.52;100.00
11621;BME280;5866;49.094;11.900;2023-06-22T04:31:09;96419.13;;;21.70;100.00
11621;BME280;5866;49.094;11.900;2023-06-22T04:33:37;96414.03;;;21.80;100.00
11621;BME280;5866;49.094;11.900;2023-06-22T04:36:08;96401.75;;;21.84;100.00
11621;BME280;5866;49.094;11.900;2023-06-22T04:38:39;96395.25;;;21.85;100.00
11621;BME280;5866;49.094;11.900;2023-06-22T04:41:07;96388.19;;;22.02;100.00
11621;BME280;5866;49.094;11.900;2023-06-22T04:43:40;96390.56;;;22.51;100.00
11621;BME280;5866;49.094;11.900;2023-06-22T04:46:08;96394.88;;;22.94;100.00
11621;BME280;5866;49.094;11.900;2023-06-22T04:48:35;96388.41;;;22.83;100.00
11621;BME280;5866;49.094;11.900;2023-06-22T04:51:03;96389.78;;;23.55;100.00
11621;BME280;5866;49.094;11.900;2023-06-22T04:53:32;96381.50;;;23.73;100.00
11621;BME280;5866;49.094;11.900;2023-06-22T04:56:00;96386.16;;;23.49;100.00
11621;BME280;5866;49.094;11.900;2023-06-22T04:58:30;96379.38;;;24.03;100.00
11621;BME280;5866;49.094;11.900;2023-06-22T05:00:58;96385.28;;;24.73;100.00
11621;BME280;5866;49.094;11.900;2023-06-22T05:03:26;96376.75;;;24.36;100.00
11621;BME280;5866;49.094;11.900;2023-06-22T05:05:54;96372.28;;;24.59;100.00
11621;BME280;5866;49.094;11.900;2023-06-22T05:08:21;96367.50;;;25.15;100.00
11621;BME280;5866;49.094;11.900;2023-06-22T05:10:54;96365.38;;;25.01;100.00
11621;BME280;5866;49.094;11.900;2023-06-22T05:13:31;96360.22;;;25.81;93.52
11621;BME280;5866;49.094;11.900;2023-06-22T05:15:59;96355.19;;;24.91;97.28
11621;BME280;5866;49.094;11.900;2023-06-22T05:18:29;96362.03;;;23.76;100.00
11621;BME280;5866;49.094;11.900;2023-06-22T05:20:58;96356.53;;;23.71;100.00
11621;BME280;5866;49.094;11.900;2023-06-22T05:23:26;96360.63;;;23.22;100.00
11621;BME280;5866;49.094;11.900;2023-06-22T05:25:55;96354.53;;;24.06;100.00
11621;BME280;5866;49.094;11.900;2023-06-22T05:28:24;96354.03;;;23.81;100.00
11621;BME280;5866;49.094;11.900;2023-06-22T05:30:52;96354.59;;;24.56;100.00
11621;BME280;5866;49.094;11.900;2023-06-22T05:33:19;96346.88;;;25.36;95.23
11621;BME280;5866;49.094;11.900;2023-06-22T05:35:47;96352.25;;;25.74;91.25
11621;BME280;5866;49.094;11.900;2023-06-22T05:38:14;96345.41;;;25.93;86.25
11621;BME280;5866;49.094;11.900;2023-06-22T05:40:42;96348.84;;;25.84;86.79
11621;BME280;5866;49.094;11.900;2023-06-22T05:43:10;96352.44;;;25.89;86.85
11621;BME280;5866;49.094;11.900;2023-06-22T05:45:38;96357.75;;;25.79;89.75
11621;BME280;5866;49.094;11.900;2023-06-22T05:48:06;96355.59;;;25.38;93.41
11621;BME280;5866;49.094;11.900;2023-06-22T05:50:33;96362.03;;;24.77;95.28
11621;BME280;5866;49.094;11.900;2023-06-22T05:53:01;96362.81;;;25.92;87.83
11621;BME280;5866;49.094;11.900;2023-06-22T05:55:28;96354.34;;;27.01;80.63
11621;BME280;5866;49.094;11.900;2023-06-22T05:57:57;96342.09;;;28.12;70.06
11621;BME280;5866;49.094;11.900;2023-06-22T06:00:26;96335.03;;;28.26;69.13
11621;BME280;5866;49.094;11.900;2023-06-22T06:02:54;96326.38;;;28.64;66.97
11621;BME280;5866;49.094;11.900;2023-06-22T06:05:22;96331.56;;;29.95;60.41
11621;BME280;5866;49.094;11.900;2023-06-22T06:07:51;96326.13;;;29.85;60.18
11621;BME280;5866;49.094;11.900;2023-06-22T06:10:19;96323.31;;;30.83;56.02
11621;BME280;5866;49.094;11.900;2023-06-22T06:12:46;96326.63;;;32.08;52.47
11621;BME280;5866;49.094;11.900;2023-06-22T06:15:14;96326.34;;;30.47;54.57
11621;BME280;5866;49.094;11.900;2023-06-22T06:17:47;96330.28;;;31.04;54.15
11621;BME280;5866;49.094;11.900;2023-06-22T06:20:14;96329.34;;;29.28;61.26
11621;BME280;5866;49.094;11.900;2023-06-22T06:22:42;96322.78;;;29.98;57.43
11621;BME280;5866;49.094;11.900;2023-06-22T06:25:10;96315.78;;;29.72;59.32
11621;BME280;5866;49.094;11.900;2023-06-22T06:27:42;96311.31;;;29.02;64.52
11621;BME280;5866;49.094;11.900;2023-06-22T06:30:11;96312.97;;;28.53;65.95
11621;BME280;5866;49.094;11.900;2023-06-22T06:32:39;96315.97;;;28.91;64.11
11621;BME280;5866;49.094;11.900;2023-06-22T06:35:09;96313.25;;;28.96;64.16
11621;BME280;5866;49.094;11.900;2023-06-22T06:37:38;96312.13;;;29.02;65.42
11621;BME280;5866;49.094;11.900;2023-06-22T06:40:07;96309.88;;;29.45;62.58
11621;BME280;5866;49.094;11.900;2023-06-22T06:42:37;96306.88;;;31.11;55.38
11621;BME280;5866;49.094;11.900;2023-06-22T06:45:07;96303.19;;;29.71;59.11
11621;BME280;5866;49.094;11.900;2023-06-22T06:47:35;96305.56;;;31.32;54.31
11621;BME280;5866;49.094;11.900;2023-06-22T06:50:04;96299.84;;;30.72;55.69
11621;BME280;5866;49.094;11.900;2023-06-22T06:52:33;96301.81;;;31.52;53.78
11621;BME280;5866;49.094;11.900;2023-06-22T06:55:04;96297.41;;;30.31;55.15
11621;BME280;5866;49.094;11.900;2023-06-22T06:57:34;96302.97;;;31.93;52.80
11621;BME280;5866;49.094;11.900;2023-06-22T07:00:04;96302.31;;;32.20;50.68
11621;BME280;5866;49.094;11.900;2023-06-22T07:02:35;96303.28;;;32.48;48.94
11621;BME280;5866;49.094;11.900;2023-06-22T07:05:03;96301.78;;;31.28;51.86
11621;BME280;5866;49.094;11.900;2023-06-22T07:07:33;96292.44;;;31.06;54.83
11621;BME280;5866;49.094;11.900;2023-06-22T07:10:04;96283.16;;;29.91;57.42
11621;BME280;5866;49.094;11.900;2023-06-22T07:12:32;96275.19;;;29.94;59.34
11621;BME280;5866;49.094;11.900;2023-06-22T07:15:04;96275.72;;;30.74;56.73
11621;BME280;5866;49.094;11.900;2023-06-22T07:17:34;96280.97;;;31.75;52.97
11621;BME280;5866;49.094;11.900;2023-06-22T07:20:03;96285.81;;;33.35;49.37
11621;BME280;5866;49.094;11.900;2023-06-22T07:22:38;96276.88;;;34.33;45.61
11621;BME280;5866;49.094;11.900;2023-06-22T07:25:06;96277.22;;;35.21;44.05
11621;BME280;5866;49.094;11.900;2023-06-22T07:27:36;96272.97;;;34.70;45.48
11621;BME280;5866;49.094;11.900;2023-06-22T07:30:06;96264.66;;;34.62;45.07
11621;BME280;5866;49.094;11.900;2023-06-22T07:32:33;96275.28;;;34.99;44.18
11621;BME280;5866;49.094;11.900;2023-06-22T07:35:01;96283.00;;;34.66;44.81
11621;BME280;5866;49.094;11.900;2023-06-22T07:37:28;96277.09;;;35.65;42.50
11621;BME280;5866;49.094;11.900;2023-06-22T07:39:58;96269.72;;;35.12;43.45
11621;BME280;5866;49.094;11.900;2023-06-22T07:42:26;96266.28;;;34.85;43.16
11621;BME280;5866;49.094;11.900;2023-06-22T07:44:54;96254.97;;;33.52;46.59
11621;BME280;5866;49.094;11.900;2023-06-22T07:47:22;96253.75;;;34.21;45.40
11621;BME280;5866;49.094;11.900;2023-06-22T07:49:51;96259.13;;;34.04;46.58
11621;BME280;5866;49.094;11.900;2023-06-22T07:52:22;96250.13;;;34.12;44.78
11621;BME280;5866;49.094;11.900;2023-06-22T07:54:51;96250.38;;;34.46;44.73
11621;BME280;5866;49.094;11.900;2023-06-22T07:57:20;96258.31;;;34.61;44.29
11621;BME280;5866;49.094;11.900;2023-06-22T07:59:48;96256.97;;;33.87;45.52
11621;BME280;5866;49.094;11.900;2023-06-22T08:02:15;96258.72;;;35.21;41.42
11621;BME280;5866;49.094;11.900;2023-06-22T08:04:43;96256.72;;;35.13;41.40
11621;BME280;5866;49.094;11.900;2023-06-22T08:07:11;96257.25;;;35.24;41.66
11621;BME280;5866;49.094;11.900;2023-06-22T08:09:38;96251.72;;;36.19;40.22
11621;BME280;5866;49.094;11.900;2023-06-22T08:12:07;96251.91;;;36.48;38.80
11621;BME280;5866;49.094;11.900;2023-06-22T08:14:38;96246.03;;;36.24;37.43
11621;BME280;5866;49.094;11.900;2023-06-22T08:17:06;96249.22;;;35.92;37.43
11621;BME280;5866;49.094;11.900;2023-06-22T08:19:33;96251.41;;;35.56;37.75
11621;BME280;5866;49.094;11.900;2023-06-22T08:22:01;96258.03;;;35.94;38.27
11621;BME280;5866;49.094;11.900;2023-06-22T08:24:28;96249.59;;;36.33;38.17
11621;BME280;5866;49.094;11.900;2023-06-22T08:26:56;96247.50;;;36.47;37.81
11621;BME280;5866;49.094;11.900;2023-06-22T08:29:24;96255.69;;;35.79;37.82
11621;BME280;5866;49.094;11.900;2023-06-22T08:31:53;96239.75;;;35.76;37.96
11621;BME280;5866;49.094;11.900;2023-06-22T08:34:21;96243.66;;;35.75;38.56
11621;BME280;5866;49.094;11.900;2023-06-22T08:36:51;96245.53;;;35.97;37.71
11621;BME280;5866;49.094;11.900;2023-06-22T08:39:19;96241.44;;;35.07;38.85
11621;BME280;5866;49.094;11.900;2023-06-22T08:41:47;96242.59;;;34.62;39.77
11621;BME280;5866;49.094;11.900;2023-06-22T08:44:17;96242.78;;;34.87;40.22
11621;BME280;5866;49.094;11.900;2023-06-22T08:46:45;96245.16;;;34.80;38.38
11621;BME280;5866;49.094;11.900;2023-06-22T08:49:18;96239.75;;;34.97;38.91
11621;BME280;5866;49.094;11.900;2023-06-22T08:51:46;96244.25;;;35.55;37.41
11621;BME280;5866;49.094;11.900;2023-06-22T08:54:15;96239.94;;;35.71;37.22
11621;BME280;5866;49.094;11.900;2023-06-22T08:56:43;96246.19;;;36.02;37.39
11621;BME280;5866;49.094;11.900;2023-06-22T08:59:11;96250.25;;;36.64;35.67
11621;BME280;5866;49.094;11.900;2023-06-22T09:01:38;96243.75;;;36.26;35.21
11621;BME280;5866;49.094;11.900;2023-06-22T09:04:06;96255.38;;;35.89;36.22
11621;BME280;5866;49.094;11.900;2023-06-22T09:06:37;96247.31;;;36.01;36.73
11621;BME280;5866;49.094;11.900;2023-06-22T09:09:12;96244.72;;;36.30;35.79
11621;BME280;5866;49.094;11.900;2023-06-22T09:11:40;96241.81;;;36.52;35.62
11621;BME280;5866;49.094;11.900;2023-06-22T09:14:07;96241.41;;;37.14;34.29
11621;BME280;5866;49.094;11.900;2023-06-22T09:16:35;96235.13;;;37.72;33.99
11621;BME280;5866;49.094;11.900;2023-06-22T09:19:03;96239.63;;;37.09;34.14
11621;BME280;5866;49.094;11.900;2023-06-22T09:21:30;96239.44;;;37.06;33.95
11621;BME280;5866;49.094;11.900;2023-06-22T09:24:01;96233.63;;;36.99;33.83
11621;BME280;5866;49.094;11.900;2023-06-22T09:26:29;96233.97;;;36.80;33.74
11621;BME280;5866;49.094;11.900;2023-06-22T09:28:56;96227.69;;;37.26;33.67
11621;BME280;5866;49.094;11.900;2023-06-22T09:31:24;96221.25;;;37.05;33.78
11621;BME280;5866;49.094;11.900;2023-06-22T09:33:52;96213.03;;;36.36;34.10
11621;BME280;5866;49.094;11.900;2023-06-22T09:36:20;96221.31;;;36.71;33.77
11621;BME280;5866;49.094;11.900;2023-06-22T09:38:48;96224.44;;;36.52;34.18
11621;BME280;5866;49.094;11.900;2023-06-22T09:41:23;96225.72;;;36.54;33.85
11621;BME280;5866;49.094;11.900;2023-06-22T09:43:50;96226.69;;;36.58;33.92
11621;BME280;5866;49.094;11.900;2023-06-22T09:46:21;96217.59;;;36.15;34.31
11621;BME280;5866;49.094;11.900;2023-06-22T09:48:51;96216.97;;;36.44;34.61
11621;BME280;5866;49.094;11.900;2023-06-22T09:51:19;96202.81;;;36.45;34.62
11621;BME280;5866;49.094;11.900;2023-06-22T09:53:48;96205.91;;;37.16;33.52
11621;BME280;5866;49.094;11.900;2023-06-22T09:56:15;96191.41;;;37.19;33.79
11621;BME280;5866;49.094;11.900;2023-06-22T09:58:45;96207.53;;;37.17;33.93
11621;BME280;5866;49.094;11.900;2023-06-22T10:01:13;96192.16;;;37.66;32.98
11621;BME280;5866;49.094;11.900;2023-06-22T10:03:42;96192.63;;;38.17;32.42
11621;BME280;5866;49.094;11.900;2023-06-22T10:06:09;96195.84;;;37.78;32.66
11621;BME280;5866;49.094;11.900;2023-06-22T10:08:37;96191.84;;;36.92;33.45
11621;BME280;5866;49.094;11.900;2023-06-22T10:11:05;96191.28;;;36.01;34.69
11621;BME280;5866;49.094;11.900;2023-06-22T10:13:33;96185.25;;;36.41;34.67
11621;BME280;5866;49.094;11.900;2023-06-22T10:16:02;96180.38;;;36.38;34.13
11621;BME280;5866;49.094;11.900;2023-06-22T10:18:29;96182.03;;;37.03;33.07
11621;BME280;5866;49.094;11.900;2023-06-22T10:20:57;96180.69;;;36.54;33.44
11621;BME280;5866;49.094;11.900;2023-06-22T10:23:24;96178.59;;;36.34;34.52
11621;BME280;5866;49.094;11.900;2023-06-22T10:25:52;96178.81;;;36.92;33.89
11621;BME280;5866;49.094;11.900;2023-06-22T10:28:19;96176.31;;;37.75;32.45
11621;BME280;5866;49.094;11.900;2023-06-22T10:30:47;96162.09;;;37.85;32.57
11621;BME280;5866;49.094;11.900;2023-06-22T10:33:16;96161.75;;;38.07;31.89
11621;BME280;5866;49.094;11.900;2023-06-22T10:35:44;96149.84;;;38.48;31.08
11621;BME280;5866;49.094;11.900;2023-06-22T10:38:11;96155.63;;;38.01;31.14
11621;BME280;5866;49.094;11.900;2023-06-22T10:40:39;96149.84;;;37.36;32.54
11621;BME280;5866;49.094;11.900;2023-06-22T10:43:06;96149.03;;;36.98;33.41
11621;BME280;5866;49.094;11.900;2023-06-22T10:45:34;96142.38;;;37.28;32.71
11621;BME280;5866;49.094;11.900;2023-06-22T10:48:01;96144.09;;;37.50;32.23
11621;BME280;5866;49.094;11.900;2023-06-22T10:50:30;96138.84;;;37.19;32.27
11621;BME280;5866;49.094;11.900;2023-06-22T10:52:58;96142.47;;;36.56;33.63
11621;BME280;5866;49.094;11.900;2023-06-22T10:55:26;96136.94;;;36.39;33.72
11621;BME280;5866;49.094;11.900;2023-06-22T10:58:05;96138.59;;;36.48;33.57
11621;BME280;5866;49.094;11.900;2023-06-22T11:00:34;96133.91;;;36.95;32.81
11621;BME280;5866;49.094;11.900;2023-06-22T11:03:02;96122.72;;;37.50;31.90
11621;BME280;5866;49.094;11.900;2023-06-22T11:05:31;96117.34;;;37.74;31.49
11621;BME280;5866;49.094;11.900;2023-06-22T11:07:59;96115.53;;;37.28;31.41
11621;BME280;5866;49.094;11.900;2023-06-22T11:10:26;96122.78;;;37.04;31.99
11621;BME280;5866;49.094;11.900;2023-06-22T11:12:54;96119.00;;;37.17;31.46
11621;BME280;5866;49.094;11.900;2023-06-22T11:15:24;96111.97;;;36.82;30.62
11621;BME280;5866;49.094;11.900;2023-06-22T11:17:51;96104.28;;;36.96;31.29
11621;BME280;5866;49.094;11.900;2023-06-22T11:20:19;96099.16;;;36.77;31.41
11621;BME280;5866;49.094;11.900;2023-06-22T11:22:48;96100.22;;;37.22;32.45
11621;BME280;5866;49.094;11.900;2023-06-22T11:25:15;96093.09;;;36.84;31.64
11621;BME280;5866;49.094;11.900;2023-06-22T11:27:43;96086.63;;;36.80;32.66
11621;BME280;5866;49.094;11.900;2023-06-22T11:30:11;96094.50;;;36.60;31.74
11621;BME280;5866;49.094;11.900;2023-06-22T11:32:38;96098.72;;;36.58;32.50
11621;BME280;5866;49.094;11.900;2023-06-22T11:35:07;96092.19;;;37.38;31.38
11621;BME280;5866;49.094;11.900;2023-06-22T11:37:34;96100.19;;;37.60;31.38
11621;BME280;5866;49.094;11.900;2023-06-22T11:40:04;96094.94;;;36.71;31.68
11621;BME280;5866;49.094;11.900;2023-06-22T11:42:34;96085.53;;;36.72;31.70
11621;BME280;5866;49.094;11.900;2023-06-22T11:45:06;96079.66;;;36.74;32.00
11621;BME280;5866;49.094;11.900;2023-06-22T11:47:34;96087.69;;;37.25;32.20
11621;BME280;5866;49.094;11.900;2023-06-22T11:50:03;96085.22;;;37.03;32.15
11621;BME280;5866;49.094;11.900;2023-06-22T11:52:31;96089.78;;;37.57;31.98
11621;BME280;5866;49.094;11.900;2023-06-22T11:54:59;96075.88;;;37.45;31.37
11621;BME280;5866;49.094;11.900;2023-06-22T11:57:32;96084.25;;;37.36;33.24
11621;BME280;5866;49.094;11.900;2023-06-22T12:00:00;96091.69;;;37.65;32.91
11621;BME280;5866;49.094;11.900;2023-06-22T12:02:27;96091.34;;;37.67;32.93
11621;BME280;5866;49.094;11.900;2023-06-22T12:04:55;96095.13;;;38.24;31.72
11621;BME280;5866;49.094;11.900;2023-06-22T12:07:24;96092.84;;;38.71;33.03
11621;BME280;5866;49.094;11.900;2023-06-22T12:09:52;96078.16;;;38.94;31.89
11621;BME280;5866;49.094;11.900;2023-06-22T12:12:19;96074.63;;;39.18;31.11
11621;BME280;5866;49.094;11.900;2023-06-22T12:14:48;96070.69;;;39.31;31.02
11621;BME280;5866;49.094;11.900;2023-06-22T12:17:15;96069.09;;;39.82;30.12
11621;BME280;5866;49.094;11.900;2023-06-22T12:19:43;96067.66;;;40.16;29.88
11621;BME280;5866;49.094;11.900;2023-06-22T12:22:10;96067.13;;;39.71;30.68
11621;BME280;5866;49.094;11.900;2023-06-22T12:24:38;96062.91;;;38.76;32.47
11621;BME280;5866;49.094;11.900;2023-06-22T12:27:06;96061.94;;;38.15;32.79
11621;BME280;5866;49.094;11.900;2023-06-22T12:29:33;96060.44;;;38.63;32.82
11621;BME280;5866;49.094;11.900;2023-06-22T12:32:03;96050.28;;;38.67;31.75
11621;BME280;5866;49.094;11.900;2023-06-22T12:34:30;96051.50;;;39.14;31.36
11621;BME280;5866;49.094;11.900;2023-06-22T12:36:58;96047.78;;;39.10;31.69
11621;BME280;5866;49.094;11.900;2023-06-22T12:39:25;96036.09;;;40.08;30.80
11621;BME280;5866;49.094;11.900;2023-06-22T12:41:53;96037.19;;;41.09;30.10
11621;BME280;5866;49.094;11.900;2023-06-22T12:44:21;96029.75;;;41.48;29.99
11621;BME280;5866;49.094;11.900;2023-06-22T12:46:48;96036.50;;;40.97;30.47
11621;BME280;5866;49.094;11.900;2023-06-22T12:49:17;96023.09;;;41.02;29.46
11621;BME280;5866;49.094;11.900;2023-06-22T12:51:45;96024.81;;;40.76;29.72
11621;BME280;5866;49.094;11.900;2023-06-22T12:54:12;96026.63;;;40.99;29.25
11621;BME280;5866;49.094;11.900;2023-06-22T12:56:41;96017.72;;;41.79;28.73
11621;BME280;5866;49.094;11.900;2023-06-22T12:59:10;96027.97;;;42.13;29.20
11621;BME280;5866;49.094;11.900;2023-06-22T13:01:37;96013.47;;;42.91;27.69